Airfield :
LOGIN :

Register | Disclaimer

   EN    FR    IT 

 










Legend :    VFR   Marginal VFR   IFR   Intensive IFR   Very Intensive IFR
Visi :
Ceiling :
>= 8 km
>= 3000ft
5 to 8 km
1000 to 3000 ft
1500m to 5 km
500 to 1000 ft
800 to 1500m
200 to 500 ft
< 800m
< 200 ft
Symbols :   Thunderstorms  Fog  Heavy snow  Heavy precipitations  Wind > 20 kt
SIGMETs :     Misc.  Thunderstorms  Icing  Turbulence  Mountain Waves  Volcanic Ashes






- Airport Elevation : 392 ft
- IATA code : CDG


LFPG - Paris-Aeroport Charles De Gaulle

CURRENT METAR :
  • 271000Z 22007KT 1100 R27L/1200D R09R/1500D R26R/1700N R08L/1300D R26L/1800N R08R/1300D R27R/1500D R09L/1800N BR BKN000 OVC001 04/04 Q1015 TEMPO 0800 FG

EXPIRED METARs :
  • 270930Z 24008KT 1300 R27L/1500N R09R/2000N R26R/P2000 R08L/1700U R26L/P2000 R08R/1900U R27R/2000N R09L/P2000 BR SCT000 OVC001 04/04 Q1015 NOSIG
  • 270900Z 22009KT 1800 BR SCT000 OVC001 04/03 Q1014 NOSIG
  • 270830Z 21008KT 1800 BR SCT000 OVC002 03/03 Q1014 NOSIG
  • 270800Z 22009KT 2200 BR FEW001 OVC002 03/03 Q1014 NOSIG
  • 270730Z 21009KT 3700 BR OVC002 03/02 Q1014 NOSIG

TAF AMD TAF LFPG
Valid from the 27 at 09:00 until the 28 at 12:00 UTC


270959Z 2709/2812 23010KT 4000 BR BKN004 TX12/2812Z TN04/2710Z
TEMPO 2710/2718 1200 RADZ BKN001
PROB40
TEMPO 2710/2717 0700 FG VV///
BECMG 2718/2721 1200 RA BKN002
BECMG 2806/2809 25015G25KT 3500 RA BKN008
BECMG 2809/2810 6000 NSW
TEMPO 2810/2812 4500 -SHRA FEW010TCU
PROB40
TEMPO 2810/2812 2500 SHRA BKN010TCU
ATIS : +33 1 48 62 10 92



MET'MAP, your aeronautical weather chart ! - Copyright ORBIFLY December 2007 - Disclaimer

ORBIFLY MET'MAP TEAM :

Programming & Development : Alexandra Zaïnal
Concept & original design : Baudouin d'Aumeries
Assistance for programming : Marc-Olivier Méhu
Technical & hardware support : Manuel Goepfert

Contact : metmap@orbifly.com




SOURCES & CREDITS :

   NOAA